Stockton, Maryland
Current Conditions -  °F | °C
As of 12:54 AM on Sunday 21 Dec 2014 (Local Time) from KWAL Reporting Station
Overcast Overcast  
Wind Chill: 31°   Ceiling: 9500
Heat Index: 31°   Visibility: 10mi
Dew Point: 26°   Wind: 0mph
Humidity: 82%   Direction: NA
Pressure: 30.3"   Gusts: NA
Location:  38.05°N, 75.41°W
Report Text: KWAL 210554Z AUTO 00000KT 10SM OVC095 M01/M03 A3030 RMK AO2 SLP256 T10061033 10006 21028 58004
Loading
Personal Weather Stations






























Interactive Weather Map New forecast layout! Learn more

10-Day Weather Forecast

Advertisements
Track Severe Weather on mobile